Time;durP1;ratioP1;P1;durP2;ratioP2;P2;SDS_P1;SDS_P2;PMS_P1;PMS_P2;Temp;Humidity;BMP_temperature;BMP_pressure;BME280_temperature;BME280_humidity;BME280_pressure;Samples;Min_cycle;Max_cycle;Signal;HPM_P1;HPM_P2
2022/01/02 00:00:46;;;;;;;34.78;18.13;;;;;;;8.41;88.17;99287.38;5107043;28;20050;-66
2022/01/02 00:03:18;;;;;;;37.00;18.23;;;;;;;8.42;87.92;99293.66;5108966;28;20023;-66
2022/01/02 00:05:44;;;;;;;45.63;20.75;;;;;;;8.40;88.26;99291.22;5106290;28;22771;-66
2022/01/02 00:08:11;;;;;;;43.88;21.02;;;;;;;8.38;88.34;99287.91;5108010;28;20039;-66
2022/01/02 00:10:51;;;;;;;45.75;22.23;;;;;;;8.37;88.39;99297.19;5109038;28;20019;-67
2022/01/02 00:13:31;;;;;;;;;;;;;;;8.35;88.47;99286.50;5106256;28;20019;-67
2022/01/02 00:16:03;;;;;;;46.80;25.02;;;;;;;8.34;88.49;99293.09;5106688;28;20013;-66
2022/01/02 00:18:33;;;;;;;52.30;26.00;;;;;;;8.34;89.04;99292.25;5106404;28;20016;-65
2022/01/02 00:21:02;;;;;;;56.85;31.83;;;;;;;8.33;88.29;99282.41;5108272;28;20380;-66
2022/01/02 00:23:32;;;;;;;59.22;33.00;;;;;;;8.33;88.70;99288.69;5112556;28;20043;-66
2022/01/02 00:26:04;;;;;;;57.22;30.40;;;;;;;8.29;88.40;99295.78;5111121;28;20098;-66
2022/01/02 00:28:32;;;;;;;53.95;29.23;;;;;;;8.26;88.17;99284.53;5112391;28;20016;-66
2022/01/02 00:30:58;;;;;;;55.75;28.08;;;;;;;8.24;88.25;99283.94;5093465;28;20043;-66
2022/01/02 00:33:24;;;;;;;59.13;29.70;;;;;;;8.24;88.20;99286.69;5093093;28;20028;-66
2022/01/02 00:35:50;;;;;;;64.18;32.10;;;;;;;8.24;88.88;99281.22;5112720;28;20072;-66
2022/01/02 00:38:21;;;;;;;71.32;36.88;;;;;;;8.25;88.28;99274.66;5111868;28;20020;-66
2022/01/02 00:40:50;;;;;;;84.97;40.80;;;;;;;8.26;88.34;99279.06;5091360;28;20383;-66
2022/01/02 00:43:24;;;;;;;86.77;41.87;;;;;;;8.28;88.81;99268.69;5092484;28;20039;-66
2022/01/02 00:45:51;;;;;;;84.93;40.80;;;;;;;8.28;88.83;99255.84;5112004;28;20038;-66
2022/01/02 00:48:21;;;;;;;88.85;44.00;;;;;;;8.28;89.12;99258.59;5111444;28;20028;-66
2022/01/02 00:50:50;;;;;;;86.38;40.45;;;;;;;8.27;88.53;99259.69;5112206;28;20050;-66
2022/01/02 00:53:18;;;;;;;93.27;46.40;;;;;;;8.26;89.10;99247.09;5110133;28;20023;-66
2022/01/02 00:55:46;;;;;;;88.82;41.53;;;;;;;8.28;88.81;99257.75;5108877;28;20329;-66
2022/01/02 00:58:19;;;;;;;97.10;45.17;;;;;;;8.27;88.67;99251.47;5110144;28;20387;-66
2022/01/02 01:00:48;;;;;;;93.10;43.80;;;;;;;8.26;88.71;99251.72;5111029;28;20023;-65
2022/01/02 01:03:29;;;;;;;92.57;44.10;;;;;;;8.25;88.60;99236.41;5112671;28;20092;-66
2022/01/02 01:05:55;;;;;;;86.75;42.22;;;;;;;8.27;88.12;99235.09;5112092;28;20288;-66
2022/01/02 01:08:23;;;;;;;81.85;39.65;;;;;;;8.30;88.61;99231.81;5109942;28;20104;-66
2022/01/02 01:10:48;;;;;;;82.65;40.13;;;;;;;8.32;88.54;99237.03;5111750;28;20016;-66
2022/01/02 01:13:15;;;;;;;85.35;44.03;;;;;;;8.29;88.66;99238.38;5111808;28;20023;-66
2022/01/02 01:15:42;;;;;;;82.63;42.38;;;;;;;8.28;88.04;99247.66;5110911;28;20044;-66
2022/01/02 01:18:07;;;;;;;78.00;38.63;;;;;;;8.32;87.73;99253.41;5111545;28;20571;-66
2022/01/02 01:20:37;;;;;;;74.70;36.58;;;;;;;8.33;88.53;99244.97;5095029;28;20226;-66
2022/01/02 01:23:02;;;;;;;;;;;;;;;8.35;88.60;99229.09;5112714;27;20028;-66
2022/01/02 01:25:28;;;;;;;74.53;36.33;;;;;;;8.38;88.14;99232.41;5107706;28;19918;-66
2022/01/02 01:27:54;;;;;;;66.85;34.03;;;;;;;8.35;88.72;99239.22;5093128;28;20096;-65
2022/01/02 01:30:22;;;;;;;66.70;32.53;;;;;;;8.34;88.15;99232.13;5109545;28;20028;-66
2022/01/02 01:32:49;;;;;;;62.00;32.28;;;;;;;8.33;88.26;99230.47;5111292;28;20020;-66
2022/01/02 01:35:15;;;;;;;57.95;30.67;;;;;;;8.31;88.48;99236.22;5111690;28;20031;-66
2022/01/02 01:37:42;;;;;;;74.13;35.35;;;;;;;8.29;88.39;99232.91;5092183;28;20451;-66
2022/01/02 01:40:10;;;;;;;58.33;31.33;;;;;;;8.28;88.21;99227.69;5111704;28;20027;-66
2022/01/02 01:42:41;;;;;;;57.50;28.65;;;;;;;8.25;88.44;99218.13;5111679;28;20022;-66
2022/01/02 01:47:42;;;;;;;55.33;27.38;;;;;;;8.23;87.90;99212.09;5110630;28;20758;-64
2022/01/02 01:50:08;;;;;;;54.65;28.65;;;;;;;8.23;88.09;99208.53;5111231;28;20020;-66
2022/01/02 01:52:33;;;;;;;62.63;33.90;;;;;;;8.20;88.57;99202.50;5111547;28;20028;-65
2022/01/02 01:54:59;;;;;;;65.32;34.22;;;;;;;8.20;88.57;99209.88;5092912;28;20012;-64
2022/01/02 01:57:24;;;;;;;73.63;36.67;;;;;;;8.17;88.08;99194.00;5110550;28;20027;-65
2022/01/02 01:59:50;;;;;;;61.20;33.75;;;;;;;8.15;87.74;99196.19;5111122;28;20110;-65
2022/01/02 02:02:16;;;;;;;65.10;36.08;;;;;;;8.13;88.15;99192.88;5110567;28;20028;-65
2022/01/02 02:04:42;;;;;;;65.75;36.53;;;;;;;8.10;88.39;99186.03;5110631;28;20044;-65
2022/01/02 02:07:07;;;;;;;57.67;31.63;;;;;;;8.10;88.35;99171.56;5109256;28;20111;-65
2022/01/02 02:09:48;;;;;;;55.22;29.67;;;;;;;8.08;88.54;99173.72;5110817;28;20103;-65
2022/01/02 02:12:14;;;;;;;53.97;30.65;;;;;;;8.04;88.25;99166.03;5110156;28;20055;-66
2022/01/02 02:14:40;;;;;;;54.63;32.03;;;;;;;8.02;87.95;99162.75;5110040;28;20023;-66
2022/01/02 02:17:06;;;;;;;46.10;25.58;;;;;;;7.99;87.93;99165.19;5109958;28;20659;-66
2022/01/02 02:19:32;;;;;;;48.60;26.83;;;;;;;7.97;87.92;99165.44;5111093;28;20022;-66
2022/01/02 02:21:57;;;;;;;52.22;30.52;;;;;;;7.95;88.39;99162.16;5110292;28;20039;-66
2022/01/02 02:24:23;;;;;;;54.33;28.33;;;;;;;7.95;88.48;99158.59;5110848;28;20023;-66
2022/01/02 02:26:48;;;;;;;51.70;26.15;;;;;;;7.96;88.32;99168.44;5110228;28;20547;-65
2022/01/02 02:29:14;;;;;;;51.20;27.73;;;;;;;7.95;88.13;99169.53;5110872;28;20023;-66
2022/01/02 02:31:41;;;;;;;46.38;25.15;;;;;;;7.96;88.16;99171.19;5112658;27;20024;-66
2022/01/02 02:34:07;;;;;;;44.95;25.15;;;;;;;7.94;88.74;99166.00;5110650;28;20046;-66
2022/01/02 02:36:32;;;;;;;38.05;23.10;;;;;;;7.95;88.17;99164.06;5109336;28;20035;-65
2022/01/02 02:38:57;;;;;;;41.40;24.63;;;;;;;7.96;87.87;99169.25;5107158;28;20031;-66
2022/01/02 02:41:23;;;;;;;40.22;23.08;;;;;;;7.97;88.27;99164.63;5088504;28;20518;-65
2022/01/02 02:44:03;;;;;;;43.85;26.77;;;;;;;7.97;88.21;99154.50;5108254;28;20046;-65
2022/01/02 02:49:12;;;;;;;38.35;23.75;;;;;;;8.01;88.50;99154.81;5109495;28;20046;-65
2022/01/02 02:54:18;;;;;;;39.42;22.08;;;;;;;8.04;88.29;99151.56;5109938;28;20543;-65
2022/01/02 02:56:54;;;;;;;39.13;22.63;;;;;;;8.04;87.94;99160.56;5090773;28;20039;-66
2022/01/02 02:59:21;;;;;;;36.00;22.58;;;;;;;8.04;88.70;99157.84;5109277;28;20024;-65
2022/01/02 03:01:46;;;;;;;42.25;25.25;;;;;;;8.03;88.47;99145.28;5109047;28;20007;-66
2022/01/02 03:04:12;;;;;;;44.40;25.73;;;;;;;8.05;88.47;99142.28;5108426;28;20035;-66
2022/01/02 03:06:37;;;;;;;40.72;25.20;;;;;;;8.05;88.52;99137.63;5090306;28;20047;-65
2022/01/02 03:09:08;;;;;;;38.63;21.35;;;;;;;8.04;88.62;99127.78;5108543;28;20031;-66
2022/01/02 03:11:36;;;;;;;41.20;22.92;;;;;;;8.04;88.33;99125.06;5109644;28;20023;-66
2022/01/02 03:14:03;;;;;;;33.38;18.98;;;;;;;8.06;87.66;99124.81;5108726;28;20034;-66
2022/01/02 03:16:29;;;;;;;36.30;21.70;;;;;;;8.07;88.19;99131.09;5106784;28;20390;-67
2022/01/02 03:18:54;;;;;;;40.53;22.60;;;;;;;8.04;88.15;99125.06;5109486;28;20107;-66
2022/01/02 03:21:20;;;;;;;37.85;23.73;;;;;;;8.05;88.20;99131.38;5109281;28;20020;-66
2022/01/02 03:23:46;;;;;;;39.42;25.80;;;;;;;8.04;88.32;99125.06;5090642;28;20047;-66
2022/01/02 03:26:11;;;;;;;38.47;22.95;;;;;;;8.05;88.18;99121.25;5107860;28;20034;-66
2022/01/02 03:28:36;;;;;;;37.55;24.33;;;;;;;8.06;87.94;99122.09;5090274;28;20677;-66
2022/01/02 03:31:02;;;;;;;37.47;24.27;;;;;;;8.07;88.14;99118.28;5108895;28;20031;-66
2022/01/02 03:33:28;;;;;;;32.72;21.40;;;;;;;8.08;87.81;99113.63;5108440;28;20490;-65
2022/01/02 03:35:53;;;;;;;35.95;22.50;;;;;;;8.08;88.21;99099.94;5108135;28;20552;-65
2022/01/02 03:38:19;;;;;;;38.55;22.83;;;;;;;8.07;88.37;99093.69;5107693;28;20020;-65
2022/01/02 03:40:44;;;;;;;35.45;21.90;;;;;;;8.05;88.20;99082.19;5108763;28;20019;-66
2022/01/02 03:43:09;;;;;;;34.33;20.83;;;;;;;8.05;87.85;99088.47;5108965;28;20431;-66
2022/01/02 03:45:35;;;;;;;32.80;21.52;;;;;;;8.09;88.11;99087.94;5108555;28;20391;-65
2022/01/02 03:48:00;;;;;;;36.67;20.42;;;;;;;8.09;88.16;99082.47;5106457;28;20024;-66
2022/01/02 03:50:26;;;;;;;37.83;22.48;;;;;;;8.10;87.94;99073.19;5108075;28;20024;-65
2022/01/02 03:52:51;;;;;;;43.53;24.88;;;;;;;8.09;87.81;99082.47;5109069;28;20046;-66
2022/01/02 03:55:17;;;;;;;35.10;20.50;;;;;;;8.10;87.86;99078.66;5108374;28;20535;-66
2022/01/02 03:57:42;;;;;;;37.83;22.15;;;;;;;8.09;88.10;99077.84;5111140;28;20035;-66
2022/01/02 04:00:11;;;;;;;36.55;22.55;;;;;;;8.09;88.23;99086.03;5112463;28;20096;-66
2022/01/02 04:02:37;;;;;;;36.10;23.13;;;;;;;8.10;88.13;99082.22;5094673;28;20038;-65
2022/01/02 04:05:07;;;;;;;37.67;23.73;;;;;;;8.10;88.77;99065.84;5111605;28;20032;-65
2022/01/02 04:07:33;;;;;;;;;;;;;;;8.09;87.74;99064.19;5110651;28;20202;-66
2022/01/02 04:10:05;;;;;;;39.00;25.17;;;;;;;8.08;88.35;99064.44;5091679;28;20376;-65
2022/01/02 04:12:32;;;;;;;36.33;22.50;;;;;;;8.06;87.85;99067.44;5110169;28;20072;-66
2022/01/02 04:14:57;;;;;;;30.25;18.17;;;;;;;8.04;87.60;99067.69;5110034;28;20035;-66
2022/01/02 04:17:23;;;;;;;36.72;20.00;;;;;;;8.01;87.87;99067.41;5112625;28;20032;-65
2022/01/02 04:19:50;;;;;;;35.92;21.15;;;;;;;8.01;88.10;99056.50;5095248;28;20015;-65
2022/01/02 04:22:15;;;;;;;35.80;22.17;;;;;;;7.99;87.53;99045.00;5111960;28;20114;-66
2022/01/02 04:24:40;;;;;;;27.95;17.15;;;;;;;7.98;87.47;99048.81;5111636;28;20098;-66
2022/01/02 04:27:06;;;;;;;31.80;22.15;;;;;;;7.92;87.61;99047.97;5093963;28;20024;-65
2022/01/02 04:29:31;;;;;;;31.13;18.02;;;;;;;7.87;88.06;99048.75;5112889;28;20024;-66
2022/01/02 04:31:57;;;;;;;33.53;20.55;;;;;;;7.83;87.97;99031.25;5109894;28;20037;-66
2022/01/02 04:34:22;;;;;;;30.00;17.95;;;;;;;7.81;87.87;99017.03;5111331;28;20066;-65
2022/01/02 04:36:47;;;;;;;30.88;19.35;;;;;;;7.77;87.54;99009.66;5111870;28;20514;-66
2022/01/02 04:39:13;;;;;;;28.77;17.50;;;;;;;7.75;87.44;99013.47;5110022;28;20042;-66
2022/01/02 04:41:38;;;;;;;27.08;17.17;;;;;;;7.73;87.25;99007.44;5092677;28;20023;-65
2022/01/02 04:44:04;;;;;;;28.52;17.95;;;;;;;7.73;87.50;99001.97;5114248;28;20027;-65
2022/01/02 04:46:29;;;;;;;31.75;17.60;;;;;;;7.72;87.79;99000.34;5113058;28;20463;-66
2022/01/02 04:48:54;;;;;;;26.25;17.23;;;;;;;7.73;87.43;98999.25;5112139;28;20110;-66
2022/01/02 04:51:20;;;;;;;28.48;20.02;;;;;;;7.70;87.66;98993.50;5114222;28;20042;-66
2022/01/02 04:53:48;;;;;;;27.52;17.40;;;;;;;7.64;87.66;98991.81;5112674;28;20464;-66
2022/01/02 04:56:15;;;;;;;28.90;18.73;;;;;;;7.59;87.28;98996.16;5113714;28;20506;-66
2022/01/02 04:58:40;;;;;;;25.30;15.30;;;;;;;7.58;87.14;98996.41;5111586;28;20035;-66
2022/01/02 05:01:11;;;;;;;30.05;17.58;;;;;;;7.54;87.76;98985.22;5108931;28;20034;-66
2022/01/02 05:03:37;;;;;;;29.52;16.77;;;;;;;7.50;87.31;98989.56;5113189;28;20531;-66
2022/01/02 05:06:03;;;;;;;29.48;18.20;;;;;;;7.45;87.82;98982.16;5110178;28;20039;-66
2022/01/02 05:08:28;;;;;;;28.88;18.52;;;;;;;7.43;87.52;98975.31;5110673;28;20119;-66
2022/01/02 05:10:55;;;;;;;27.77;17.83;;;;;;;7.36;87.37;98978.28;5113012;28;20066;-66
2022/01/02 05:13:21;;;;;;;25.95;17.42;;;;;;;7.32;87.68;98974.41;5111843;28;20028;-66
2022/01/02 05:15:46;;;;;;;27.77;18.77;;;;;;;7.28;87.58;98978.75;5093989;28;20034;-66
2022/01/02 05:18:11;;;;;;;30.10;17.35;;;;;;;7.25;87.29;98971.09;5110100;28;20438;-65
2022/01/02 05:20:37;;;;;;;21.48;13.90;;;;;;;7.24;87.70;98961.25;5110861;28;20023;-66
2022/01/02 05:23:02;;;;;;;25.73;16.17;;;;;;;7.19;87.89;98958.50;5111060;28;20429;-66
2022/01/02 05:25:28;;;;;;;29.08;18.20;;;;;;;7.13;88.02;98942.06;5106079;28;20047;-65
2022/01/02 05:27:53;;;;;;;27.55;19.20;;;;;;;7.11;87.20;98936.09;5111226;28;20472;-66
2022/01/02 05:30:19;;;;;;;24.55;16.60;;;;;;;7.10;87.99;98926.25;5110801;28;20023;-66
2022/01/02 05:32:45;;;;;;;23.17;15.23;;;;;;;7.06;87.79;98927.88;5112137;28;20031;-66
2022/01/02 05:35:10;;;;;;;19.83;13.70;;;;;;;7.06;87.70;98918.84;5110275;28;20366;-66
2022/01/02 05:37:35;;;;;;;23.08;15.13;;;;;;;7.00;87.78;98916.06;5109020;28;20019;-65
2022/01/02 05:40:02;;;;;;;24.77;15.43;;;;;;;6.97;87.76;98919.31;5109832;28;20032;-65
2022/01/02 05:42:27;;;;;;;24.88;14.63;;;;;;;6.96;87.43;98914.16;5108868;28;20101;-66
2022/01/02 05:44:52;;;;;;;23.63;14.98;;;;;;;6.95;87.63;98920.69;5090021;28;20023;-66
2022/01/02 05:47:18;;;;;;;26.33;16.58;;;;;;;6.93;87.69;98911.94;5110754;28;20034;-66
2022/01/02 05:49:44;;;;;;;27.65;18.58;;;;;;;6.90;87.64;98905.13;5112693;28;20019;-66
2022/01/02 05:52:09;;;;;;;25.88;15.40;;;;;;;6.91;87.53;98893.13;5110943;28;20030;-66
2022/01/02 05:54:35;;;;;;;23.48;15.30;;;;;;;6.87;88.02;98897.47;5092120;28;20039;-66
2022/01/02 05:57:00;;;;;;;24.02;15.63;;;;;;;6.86;88.19;98887.63;5112147;28;20115;-66
2022/01/02 05:59:25;;;;;;;24.35;17.15;;;;;;;6.87;87.94;98892.00;5110713;28;20027;-65
2022/01/02 06:01:51;;;;;;;25.45;16.42;;;;;;;6.87;88.30;98896.63;5111620;28;20051;-66
2022/01/02 06:04:16;;;;;;;23.40;15.80;;;;;;;6.83;87.93;98888.97;5108912;28;20023;-66
2022/01/02 06:06:44;;;;;;;28.90;18.70;;;;;;;6.85;87.89;98886.00;5106565;28;20024;-66
2022/01/02 06:09:09;;;;;;;29.40;15.52;;;;;;;6.87;88.34;98877.53;5094007;28;20047;-66
2022/01/02 06:11:35;;;;;;;29.42;17.10;;;;;;;6.84;88.08;98870.72;5108634;28;20020;-66
2022/01/02 06:14:00;;;;;;;34.75;20.02;;;;;;;6.83;87.73;98878.06;5109972;28;20065;-65
2022/01/02 06:16:25;;;;;;;39.85;21.83;;;;;;;6.83;87.69;98860.88;5107314;28;20516;-66
2022/01/02 06:18:52;;;;;;;32.38;20.10;;;;;;;6.80;87.97;98854.03;5108646;28;20036;-65
2022/01/02 06:21:17;;;;;;;35.47;20.52;;;;;;;6.78;87.73;98848.03;5089381;28;20116;-65
2022/01/02 06:23:43;;;;;;;35.15;20.08;;;;;;;6.75;88.13;98837.63;5093312;28;20061;-66
2022/01/02 06:26:08;;;;;;;36.88;19.65;;;;;;;6.72;87.90;98831.91;5111152;28;20040;-65
2022/01/02 06:28:33;;;;;;;32.72;18.38;;;;;;;6.69;87.73;98827.81;5111174;28;20031;-66
2022/01/02 06:30:59;;;;;;;39.35;20.92;;;;;;;6.69;87.49;98822.34;5113242;27;20028;-66
2022/01/02 06:33:24;;;;;;;35.30;19.40;;;;;;;6.68;87.85;98816.06;5112208;28;20097;-66
2022/01/02 06:35:50;;;;;;;34.47;18.75;;;;;;;6.70;87.72;98810.38;5089319;28;20012;-65
2022/01/02 06:38:18;;;;;;;32.42;17.20;;;;;;;6.69;88.16;98804.09;5111419;28;20422;-66
2022/01/02 06:40:43;;;;;;;29.60;16.27;;;;;;;6.68;87.59;98801.63;5093064;28;20026;-66
2022/01/02 06:43:09;;;;;;;30.23;16.95;;;;;;;6.65;88.34;98802.16;5112096;28;20031;-65
2022/01/02 06:45:35;;;;;;;28.90;17.27;;;;;;;6.62;88.24;98791.78;5111899;28;20051;-65
2022/01/02 06:48:02;;;;;;;30.27;18.00;;;;;;;6.60;88.10;98788.50;5110555;28;20043;-66
2022/01/02 06:50:28;;;;;;;32.00;18.65;;;;;;;6.56;87.93;98780.00;5108926;28;20032;-65
2022/01/02 06:52:53;;;;;;;31.33;18.40;;;;;;;6.55;88.02;98784.63;5111887;28;20030;-66
2022/01/02 06:55:18;;;;;;;34.80;20.25;;;;;;;6.54;88.23;98776.72;5111026;28;20028;-65
2022/01/02 06:57:44;;;;;;;34.05;21.27;;;;;;;6.54;88.22;98782.16;5091265;28;20046;-65
2022/01/02 07:00:09;;;;;;;34.25;19.95;;;;;;;6.54;88.25;98763.09;5108453;28;20107;-65
2022/01/02 07:02:35;;;;;;;33.53;21.00;;;;;;;6.55;88.12;98764.72;5111441;28;20028;-65
2022/01/02 07:05:00;;;;;;;32.45;18.17;;;;;;;6.55;88.35;98762.00;5110917;28;20589;-65
2022/01/02 07:07:26;;;;;;;31.75;18.02;;;;;;;6.54;88.34;98761.19;5110044;28;20097;-65
2022/01/02 07:09:51;;;;;;;30.15;18.05;;;;;;;6.54;88.30;98761.19;5110714;28;20036;-66
2022/01/02 07:12:17;;;;;;;28.23;16.73;;;;;;;6.58;88.07;98766.13;5110994;28;20031;-65
2022/01/02 07:14:42;;;;;;;24.05;14.48;;;;;;;6.58;88.35;98772.38;5110351;28;20039;-65
2022/01/02 07:17:08;;;;;;;25.38;16.38;;;;;;;6.59;88.48;98763.13;5109488;28;20129;-65
2022/01/02 07:19:33;;;;;;;24.23;15.15;;;;;;;6.61;88.05;98774.59;5109830;28;20061;-65
2022/01/02 07:21:59;;;;;;;27.15;16.08;;;;;;;6.62;87.97;98761.78;5110433;28;20051;-65
2022/01/02 07:24:25;;;;;;;30.00;17.50;;;;;;;6.62;88.48;98754.44;5108895;28;20073;-65
2022/01/02 07:26:51;;;;;;;24.33;15.30;;;;;;;6.65;88.19;98750.38;5110282;28;20023;-65
2022/01/02 07:29:16;;;;;;;26.85;17.27;;;;;;;6.67;88.01;98726.41;5110067;28;20483;-65
2022/01/02 07:31:42;;;;;;;28.38;17.23;;;;;;;6.67;88.22;98726.41;5096302;28;20467;-65
2022/01/02 07:34:08;;;;;;;24.90;15.45;;;;;;;6.71;88.34;98719.34;5111992;28;20079;-66
2022/01/02 07:36:33;;;;;;;23.98;16.25;;;;;;;6.74;88.54;98713.34;5110225;28;20047;-65
2022/01/02 07:38:59;;;;;;;28.88;17.10;;;;;;;6.77;88.25;98718.25;5110544;28;20031;-65
2022/01/02 07:41:24;;;;;;;41.78;32.50;;;;;;;6.80;88.27;98715.00;5109095;28;20051;-65
2022/01/02 07:43:50;;;;;;;47.90;38.20;;;;;;;6.80;87.85;98712.28;5110218;28;20700;-65
2022/01/02 07:46:15;;;;;;;49.80;36.08;;;;;;;6.82;88.13;98718.28;5109746;28;20036;-64
2022/01/02 07:48:41;;;;;;;43.03;30.77;;;;;;;6.82;88.02;98721.00;5107818;28;20148;-65
2022/01/02 07:51:07;;;;;;;40.88;28.92;;;;;;;6.82;87.60;98722.94;5112459;28;20039;-65
2022/01/02 07:53:32;;;;;;;77.45;41.88;;;;;;;6.81;88.03;98732.19;5110356;28;20035;-65
2022/01/02 07:55:58;;;;;;;88.85;39.55;;;;;;;6.81;87.97;98735.72;5109574;28;20032;-65
2022/01/02 07:58:24;;;;;;;65.22;31.27;;;;;;;6.83;87.79;98724.56;5107026;28;20031;-65
2022/01/02 08:00:50;;;;;;;55.55;25.83;;;;;;;6.87;88.20;98727.56;5093790;28;20024;-65
2022/01/02 08:03:16;;;;;;;79.25;30.08;;;;;;;6.88;87.86;98716.41;5110490;28;20030;-65
2022/01/02 08:05:42;;;;;;;59.90;25.83;;;;;;;6.89;87.84;98709.88;5108395;28;20035;-65
2022/01/02 08:08:09;;;;;;;67.80;27.92;;;;;;;6.91;87.61;98701.44;5109089;28;20371;-65
2022/01/02 08:10:37;;;;;;;76.55;33.00;;;;;;;6.91;88.21;98698.69;5109157;28;20031;-65
2022/01/02 08:13:04;;;;;;;48.30;22.60;;;;;;;6.92;87.87;98708.53;5109346;28;20380;-65
2022/01/02 08:15:29;;;;;;;38.83;19.88;;;;;;;6.92;87.51;98698.44;5108996;28;20063;-66
2022/01/02 08:17:55;;;;;;;61.28;25.58;;;;;;;6.94;87.38;98692.72;5108874;28;20451;-65
2022/01/02 08:20:20;;;;;;;57.88;26.83;;;;;;;6.95;87.61;98697.09;5107545;28;20084;-65
2022/01/02 08:22:45;;;;;;;51.95;25.65;;;;;;;7.01;87.59;98696.03;5089747;28;20120;-65
2022/01/02 08:25:11;;;;;;;39.33;19.55;;;;;;;7.04;87.38;98692.75;5109095;28;20027;-65
2022/01/02 08:27:36;;;;;;;37.53;19.33;;;;;;;7.08;87.78;98696.59;5106220;28;20047;-65
2022/01/02 08:30:03;;;;;;;43.55;20.73;;;;;;;7.11;88.01;98690.63;5109044;28;20031;-65
2022/01/02 08:32:28;;;;;;;34.65;16.65;;;;;;;7.18;87.65;98697.69;5090880;28;20040;-65
2022/01/02 08:34:54;;;;;;;41.35;20.77;;;;;;;7.24;87.30;98697.47;5108401;28;20031;-65
2022/01/02 08:37:19;;;;;;;34.70;17.15;;;;;;;7.29;87.14;98699.38;5107867;28;20531;-66
2022/01/02 08:39:45;;;;;;;32.80;17.40;;;;;;;7.33;86.89;98694.22;5107959;28;20030;-65
2022/01/02 08:42:12;;;;;;;32.22;18.70;;;;;;;7.37;87.22;98685.22;5107590;28;20050;-65
2022/01/02 08:44:39;;;;;;;33.75;16.48;;;;;;;7.36;86.63;98688.19;5111842;28;20019;-65
2022/01/02 08:47:06;;;;;;;33.30;17.40;;;;;;;7.38;87.03;98695.03;5110399;28;20039;-66
2022/01/02 08:49:32;;;;;;;30.10;16.02;;;;;;;7.41;86.36;98688.22;5110685;28;20037;-65
2022/01/02 08:51:57;;;;;;;39.00;24.67;;;;;;;7.42;86.27;98682.50;5112350;28;20107;-65
2022/01/02 08:54:23;;;;;;;31.67;16.23;;;;;;;7.43;86.43;98678.69;5111685;28;20024;-65
2022/01/02 08:56:48;;;;;;;31.90;15.13;;;;;;;7.44;85.71;98690.41;5092071;28;20084;-65
2022/01/02 08:59:14;;;;;;;26.48;13.60;;;;;;;7.44;85.71;98688.50;5110266;28;20031;-65
2022/01/02 09:01:39;;;;;;;26.45;12.13;;;;;;;7.44;85.53;98690.41;5109492;28;20031;-65
2022/01/02 09:04:05;;;;;;;28.73;13.95;;;;;;;7.47;85.60;98689.06;5091702;28;20421;-65
2022/01/02 09:06:30;;;;;;;23.30;10.75;;;;;;;7.49;85.12;98684.16;5111413;28;20027;-64
2022/01/02 09:08:56;;;;;;;17.50;9.90;;;;;;;7.54;85.19;98675.97;5111154;28;20044;-65
2022/01/02 09:11:22;;;;;;;17.85;8.93;;;;;;;7.57;84.86;98678.97;5110882;28;20028;-66
2022/01/02 09:13:47;;;;;;;14.40;7.38;;;;;;;7.63;84.24;98668.06;5111216;28;20069;-65
2022/01/02 09:16:13;;;;;;;18.23;8.50;;;;;;;7.70;83.56;98676.81;5112011;28;20028;-66
2022/01/02 09:18:38;;;;;;;18.95;10.40;;;;;;;7.76;84.02;98678.44;5111268;28;20103;-65
2022/01/02 09:21:04;;;;;;;17.65;9.32;;;;;;;7.81;83.83;98680.34;5110906;28;20031;-66
2022/01/02 09:23:29;;;;;;;15.35;8.98;;;;;;;7.85;83.44;98681.47;5111181;28;20015;-65
2022/01/02 09:25:55;;;;;;;14.73;8.60;;;;;;;7.87;83.65;98685.53;5092626;28;20468;-66
2022/01/02 09:28:20;;;;;;;13.82;7.80;;;;;;;7.94;83.35;98679.00;5108593;28;20042;-66
2022/01/02 09:30:46;;;;;;;17.15;10.25;;;;;;;7.97;83.14;98675.72;5111882;28;20134;-65
2022/01/02 09:33:11;;;;;;;16.17;8.10;;;;;;;7.99;83.17;98671.59;5111534;28;20478;-66
2022/01/02 09:35:38;;;;;;;15.63;8.75;;;;;;;8.06;82.56;98690.47;5111023;28;20063;-66
2022/01/02 09:38:04;;;;;;;20.10;10.55;;;;;;;8.13;82.84;98674.63;5110155;28;20096;-66
2022/01/02 09:40:31;;;;;;;16.40;8.80;;;;;;;8.23;82.16;98670.22;5109475;28;20479;-66
2022/01/02 09:42:57;;;;;;;19.42;9.30;;;;;;;8.33;82.14;98665.56;5109001;28;20121;-66
2022/01/02 09:45:24;;;;;;;17.10;9.27;;;;;;;8.45;81.67;98665.28;5111366;28;20026;-66
2022/01/02 09:47:51;;;;;;;17.85;9.23;;;;;;;8.58;81.31;98660.31;5109900;28;20058;-66
2022/01/02 09:50:18;;;;;;;14.90;8.70;;;;;;;8.69;80.50;98656.47;5108836;28;20036;-66
2022/01/02 09:52:44;;;;;;;14.20;8.32;;;;;;;8.79;80.42;98669.28;5092835;28;20027;-66
2022/01/02 09:55:10;;;;;;;14.32;8.73;;;;;;;8.87;80.91;98644.09;5110559;28;20038;-65
2022/01/02 09:57:44;;;;;;;11.25;6.43;;;;;;;8.94;79.74;98644.63;5110548;28;20169;-65
2022/01/02 10:00:10;;;;;;;12.75;6.50;;;;;;;9.01;79.15;98638.03;5111710;27;20043;-66
2022/01/02 10:02:55;;;;;;;13.43;7.10;;;;;;;9.08;79.13;98631.13;5091679;28;20037;-65
2022/01/02 10:05:24;;;;;;;13.02;7.57;;;;;;;9.09;78.30;98621.81;5110446;28;20027;-67
2022/01/02 10:07:50;;;;;;;9.02;6.05;;;;;;;9.13;77.32;98632.19;5112283;27;20059;-66
2022/01/02 10:10:16;;;;;;;13.70;7.05;;;;;;;9.17;78.59;98630.53;5110628;28;20023;-66
2022/01/02 10:12:41;;;;;;;11.35;6.03;;;;;;;9.20;76.55;98621.78;5110460;28;20015;-66
2022/01/02 10:15:15;;;;;;;12.52;6.60;;;;;;;9.23;76.83;98623.94;5110129;28;20031;-67
2022/01/02 10:18:00;;;;;;;11.07;5.55;;;;;;;9.27;75.79;98622.28;5108283;28;20031;-66
2022/01/02 10:20:31;;;;;;;13.60;6.50;;;;;;;9.28;76.92;98639.50;5110907;27;20029;-66
2022/01/02 10:23:06;;;;;;;12.80;5.72;;;;;;;9.31;76.62;98625.25;5108286;28;20442;-67
2022/01/02 10:25:41;;;;;;;12.65;6.30;;;;;;;9.34;76.66;98643.84;5114215;27;20019;-67
2022/01/02 10:28:29;;;;;;;8.18;5.20;;;;;;;9.38;76.17;98629.28;5108634;27;20752;-66
2022/01/02 10:31:20;;;;;;;10.88;6.00;;;;;;;9.43;75.62;98630.38;5110335;28;20055;-67
2022/01/02 10:33:49;;;;;;;10.98;5.60;;;;;;;9.47;76.44;98607.63;5106095;27;20487;-66
2022/01/02 10:36:14;;;;;;;12.52;5.30;;;;;;;9.49;75.11;98627.31;5110402;28;20026;-67
2022/01/02 10:39:02;;;;;;;8.40;5.50;;;;;;;9.56;75.86;98604.28;5110292;28;20120;-66
2022/01/02 10:41:35;;;;;;;12.27;6.45;;;;;;;9.62;75.95;98582.03;5104952;27;20043;-67
2022/01/02 10:44:16;;;;;;;10.23;6.13;;;;;;;9.66;75.92;98572.16;5111243;28;20561;-67
2022/01/02 10:47:11;;;;;;;17.92;8.20;;;;;;;9.71;74.91;98565.81;5110887;28;20024;-66
2022/01/02 10:49:59;;;;;;;14.55;7.07;;;;;;;9.76;75.40;98554.81;5087100;28;20027;-66
2022/01/02 10:52:32;;;;;;;10.60;6.28;;;;;;;9.81;75.50;98560.22;5083311;28;20097;-65
2022/01/02 10:55:00;;;;;;;20.40;10.57;;;;;;;9.84;75.21;98553.34;5076796;28;20020;-65
2022/01/02 10:57:27;;;;;;;15.13;7.60;;;;;;;9.86;74.59;98575.78;5082590;28;20039;-65
2022/01/02 10:59:57;;;;;;;14.55;7.75;;;;;;;9.91;75.01;98559.31;5086157;28;20173;-66
2022/01/02 11:02:24;;;;;;;11.73;5.80;;;;;;;9.94;75.01;98553.25;5086213;28;20494;-66
2022/01/02 11:05:19;;;;;;;17.48;8.93;;;;;;;9.99;73.91;98541.41;5086945;28;20019;-66
2022/01/02 11:07:50;;;;;;;11.07;5.75;;;;;;;10.05;74.02;98529.28;5082502;28;20492;-65
2022/01/02 11:10:19;;;;;;;11.98;6.10;;;;;;;10.10;73.78;98529.25;5087024;28;20028;-66
2022/01/02 11:12:46;;;;;;;13.55;6.70;;;;;;;10.17;73.76;98526.16;5082233;28;20093;-65
2022/01/02 11:15:14;;;;;;;13.30;7.10;;;;;;;10.23;73.26;98533.19;5078148;28;20078;-66
2022/01/02 11:17:41;;;;;;;10.95;5.43;;;;;;;10.29;71.28;98528.50;5079026;28;20537;-67
2022/01/02 11:20:10;;;;;;;13.07;7.88;;;;;;;10.35;72.74;98530.06;5084415;28;20579;-66
2022/01/02 11:23:07;;;;;;;7.80;5.45;;;;;;;10.41;71.93;98536.31;5088098;27;20063;-66
2022/01/02 11:25:41;;;;;;;11.13;5.72;;;;;;;10.47;71.15;98528.84;5040570;28;20043;-64
2022/01/02 11:28:26;;;;;;;10.85;5.05;;;;;;;10.50;71.33;98534.56;5079099;28;21653;-63
2022/01/02 11:30:53;;;;;;;8.77;5.53;;;;;;;10.50;70.33;98547.44;5084986;28;20035;-64
2022/01/02 11:33:20;;;;;;;8.30;4.82;;;;;;;10.51;69.84;98538.94;5081295;28;21199;-64
2022/01/02 11:35:49;;;;;;;9.43;5.45;;;;;;;10.52;70.25;98523.28;5079990;28;20028;-64